sensor_id;sensor_type;location;lat;lon;timestamp;pressure;altitude;pressure_sealevel;temperature;humidity
10060;BME280;5069;49.306;8.636;2023-11-19T00:00:27;100550.38;;;9.46;100.00
10060;BME280;5069;49.306;8.636;2023-11-19T00:03:29;100545.13;;;9.46;100.00
10060;BME280;5069;49.306;8.636;2023-11-19T00:06:30;100544.06;;;9.53;100.00
10060;BME280;5069;49.306;8.636;2023-11-19T00:09:35;100543.19;;;9.53;100.00
10060;BME280;5069;49.306;8.636;2023-11-19T00:12:41;100548.31;;;9.58;100.00
10060;BME280;5069;49.306;8.636;2023-11-19T00:15:43;100541.25;;;9.60;100.00
10060;BME280;5069;49.306;8.636;2023-11-19T00:18:46;100533.41;;;9.58;100.00
10060;BME280;5069;49.306;8.636;2023-11-19T00:21:48;100523.00;;;9.53;100.00
10060;BME280;5069;49.306;8.636;2023-11-19T00:24:49;100520.94;;;9.65;100.00
10060;BME280;5069;49.306;8.636;2023-11-19T00:27:51;100517.47;;;9.63;100.00
10060;BME280;5069;49.306;8.636;2023-11-19T00:30:54;100518.25;;;9.68;100.00
10060;BME280;5069;49.306;8.636;2023-11-19T00:33:56;100507.94;;;9.59;100.00
10060;BME280;5069;49.306;8.636;2023-11-19T00:36:58;100521.06;;;9.60;100.00
10060;BME280;5069;49.306;8.636;2023-11-19T00:40:00;100518.13;;;9.71;100.00
10060;BME280;5069;49.306;8.636;2023-11-19T00:43:01;100501.63;;;9.66;100.00
10060;BME280;5069;49.306;8.636;2023-11-19T00:46:03;100511.97;;;9.72;100.00
10060;BME280;5069;49.306;8.636;2023-11-19T00:49:05;100500.63;;;9.70;100.00
10060;BME280;5069;49.306;8.636;2023-11-19T00:52:07;100502.34;;;9.71;100.00
10060;BME280;5069;49.306;8.636;2023-11-19T00:55:08;100510.09;;;9.75;100.00
10060;BME280;5069;49.306;8.636;2023-11-19T00:58:10;100509.25;;;9.75;100.00
10060;BME280;5069;49.306;8.636;2023-11-19T01:01:11;100519.69;;;9.78;100.00
10060;BME280;5069;49.306;8.636;2023-11-19T01:04:14;100512.69;;;9.77;100.00
10060;BME280;5069;49.306;8.636;2023-11-19T01:07:16;100517.03;;;9.79;100.00
10060;BME280;5069;49.306;8.636;2023-11-19T01:10:17;100522.22;;;9.81;100.00
10060;BME280;5069;49.306;8.636;2023-11-19T01:13:20;100520.22;;;9.90;100.00
10060;BME280;5069;49.306;8.636;2023-11-19T01:16:21;100507.00;;;9.92;100.00
10060;BME280;5069;49.306;8.636;2023-11-19T01:19:24;100508.75;;;9.91;100.00
10060;BME280;5069;49.306;8.636;2023-11-19T01:22:26;100510.44;;;9.94;100.00
10060;BME280;5069;49.306;8.636;2023-11-19T01:25:27;100507.00;;;9.92;100.00
10060;BME280;5069;49.306;8.636;2023-11-19T01:28:29;100515.72;;;9.94;100.00
10060;BME280;5069;49.306;8.636;2023-11-19T01:31:32;100519.22;;;9.94;100.00
10060;BME280;5069;49.306;8.636;2023-11-19T01:34:35;100525.34;;;9.95;100.00
10060;BME280;5069;49.306;8.636;2023-11-19T01:37:37;100510.34;;;9.97;100.00
10060;BME280;5069;49.306;8.636;2023-11-19T01:40:39;100523.09;;;10.12;100.00
10060;BME280;5069;49.306;8.636;2023-11-19T01:43:41;100515.34;;;10.06;100.00
10060;BME280;5069;49.306;8.636;2023-11-19T01:46:44;100525.66;;;10.14;100.00
10060;BME280;5069;49.306;8.636;2023-11-19T01:49:48;100518.78;;;10.08;100.00
10060;BME280;5069;49.306;8.636;2023-11-19T01:52:52;100517.84;;;10.11;100.00
10060;BME280;5069;49.306;8.636;2023-11-19T01:55:56;100505.50;;;10.13;100.00
10060;BME280;5069;49.306;8.636;2023-11-19T01:58:58;100511.56;;;10.16;100.00
10060;BME280;5069;49.306;8.636;2023-11-19T02:02:00;100503.69;;;10.15;100.00
10060;BME280;5069;49.306;8.636;2023-11-19T02:05:02;100499.38;;;10.12;100.00
10060;BME280;5069;49.306;8.636;2023-11-19T02:08:04;100501.72;;;10.23;100.00
10060;BME280;5069;49.306;8.636;2023-11-19T02:11:06;100506.31;;;10.16;100.00
10060;BME280;5069;49.306;8.636;2023-11-19T02:14:10;100484.34;;;10.16;100.00
10060;BME280;5069;49.306;8.636;2023-11-19T02:17:28;100486.09;;;10.17;100.00
10060;BME280;5069;49.306;8.636;2023-11-19T02:20:30;100473.59;;;10.23;100.00
10060;BME280;5069;49.306;8.636;2023-11-19T02:23:32;100487.50;;;10.28;100.00
10060;BME280;5069;49.306;8.636;2023-11-19T02:26:39;100484.94;;;10.25;100.00
10060;BME280;5069;49.306;8.636;2023-11-19T02:29:41;100482.22;;;10.28;100.00
10060;BME280;5069;49.306;8.636;2023-11-19T02:32:43;100477.78;;;10.30;100.00
10060;BME280;5069;49.306;8.636;2023-11-19T02:35:45;100454.09;;;10.29;100.00
10060;BME280;5069;49.306;8.636;2023-11-19T02:38:47;100437.50;;;10.25;100.00
10060;BME280;5069;49.306;8.636;2023-11-19T02:41:48;100438.31;;;10.29;100.00
10060;BME280;5069;49.306;8.636;2023-11-19T02:44:54;100427.56;;;10.35;100.00
10060;BME280;5069;49.306;8.636;2023-11-19T02:47:55;100435.13;;;10.46;100.00
10060;BME280;5069;49.306;8.636;2023-11-19T02:50:57;100432.66;;;10.41;100.00
10060;BME280;5069;49.306;8.636;2023-11-19T02:53:59;100447.44;;;10.45;100.00
10060;BME280;5069;49.306;8.636;2023-11-19T02:57:01;100454.44;;;10.46;100.00
10060;BME280;5069;49.306;8.636;2023-11-19T03:00:05;100449.97;;;10.48;100.00
10060;BME280;5069;49.306;8.636;2023-11-19T03:03:13;100452.06;;;10.65;100.00
10060;BME280;5069;49.306;8.636;2023-11-19T03:06:27;100447.03;;;10.57;100.00
10060;BME280;5069;49.306;8.636;2023-11-19T03:09:30;100441.81;;;10.56;100.00
10060;BME280;5069;49.306;8.636;2023-11-19T03:12:31;100425.91;;;10.59;100.00
10060;BME280;5069;49.306;8.636;2023-11-19T03:15:33;100418.03;;;10.57;100.00
10060;BME280;5069;49.306;8.636;2023-11-19T03:18:34;100426.47;;;10.68;100.00
10060;BME280;5069;49.306;8.636;2023-11-19T03:21:36;100410.84;;;10.62;100.00
10060;BME280;5069;49.306;8.636;2023-11-19T03:24:38;100415.03;;;10.68;100.00
10060;BME280;5069;49.306;8.636;2023-11-19T03:27:39;100406.22;;;10.69;100.00
10060;BME280;5069;49.306;8.636;2023-11-19T03:30:43;100405.31;;;10.70;100.00
10060;BME280;5069;49.306;8.636;2023-11-19T03:33:44;100401.81;;;10.69;100.00
10060;BME280;5069;49.306;8.636;2023-11-19T03:36:46;100391.13;;;10.74;100.00
10060;BME280;5069;49.306;8.636;2023-11-19T03:39:48;100399.84;;;10.76;100.00
10060;BME280;5069;49.306;8.636;2023-11-19T03:42:49;100393.53;;;10.80;100.00
10060;BME280;5069;49.306;8.636;2023-11-19T03:45:51;100397.69;;;10.87;100.00
10060;BME280;5069;49.306;8.636;2023-11-19T03:48:52;100385.44;;;10.86;100.00
10060;BME280;5069;49.306;8.636;2023-11-19T03:51:54;100389.56;;;10.93;100.00
10060;BME280;5069;49.306;8.636;2023-11-19T03:54:55;100381.66;;;10.93;100.00
10060;BME280;5069;49.306;8.636;2023-11-19T03:57:58;100375.53;;;10.93;100.00
10060;BME280;5069;49.306;8.636;2023-11-19T04:01:00;100386.00;;;10.94;100.00
10060;BME280;5069;49.306;8.636;2023-11-19T04:04:02;100374.44;;;10.98;100.00
10060;BME280;5069;49.306;8.636;2023-11-19T04:07:03;100380.72;;;10.94;100.00
10060;BME280;5069;49.306;8.636;2023-11-19T04:10:05;100371.38;;;11.10;100.00
10060;BME280;5069;49.306;8.636;2023-11-19T04:13:07;100367.06;;;11.08;100.00
10060;BME280;5069;49.306;8.636;2023-11-19T04:16:08;100369.00;;;11.03;100.00
10060;BME280;5069;49.306;8.636;2023-11-19T04:19:11;100373.06;;;11.11;100.00
10060;BME280;5069;49.306;8.636;2023-11-19T04:22:13;100373.72;;;11.18;100.00
10060;BME280;5069;49.306;8.636;2023-11-19T04:25:15;100365.00;;;11.16;100.00
10060;BME280;5069;49.306;8.636;2023-11-19T04:28:17;100374.47;;;11.22;100.00
10060;BME280;5069;49.306;8.636;2023-11-19T04:31:19;100378.03;;;11.21;100.00
10060;BME280;5069;49.306;8.636;2023-11-19T04:34:20;100391.16;;;11.22;100.00
10060;BME280;5069;49.306;8.636;2023-11-19T04:37:22;100391.91;;;11.26;100.00
10060;BME280;5069;49.306;8.636;2023-11-19T04:40:23;100395.38;;;11.28;100.00
10060;BME280;5069;49.306;8.636;2023-11-19T04:43:25;100391.06;;;11.25;100.00
10060;BME280;5069;49.306;8.636;2023-11-19T04:46:27;100390.88;;;11.30;100.00
10060;BME280;5069;49.306;8.636;2023-11-19T04:49:28;100381.81;;;11.37;100.00
10060;BME280;5069;49.306;8.636;2023-11-19T04:52:31;100380.91;;;11.38;100.00
10060;BME280;5069;49.306;8.636;2023-11-19T04:55:33;100380.06;;;11.37;100.00
10060;BME280;5069;49.306;8.636;2023-11-19T04:58:35;100361.41;;;11.42;100.00
10060;BME280;5069;49.306;8.636;2023-11-19T05:01:37;100363.34;;;11.37;100.00
10060;BME280;5069;49.306;8.636;2023-11-19T05:04:43;100370.91;;;11.46;100.00
10060;BME280;5069;49.306;8.636;2023-11-19T05:07:46;100373.69;;;11.43;100.00
10060;BME280;5069;49.306;8.636;2023-11-19T05:10:47;100375.63;;;11.38;100.00
10060;BME280;5069;49.306;8.636;2023-11-19T05:13:49;100376.53;;;11.37;100.00
10060;BME280;5069;49.306;8.636;2023-11-19T05:16:51;100382.28;;;11.48;100.00
10060;BME280;5069;49.306;8.636;2023-11-19T05:19:53;100372.63;;;11.47;100.00
10060;BME280;5069;49.306;8.636;2023-11-19T05:22:54;100374.38;;;11.48;100.00
10060;BME280;5069;49.306;8.636;2023-11-19T05:25:56;100376.19;;;11.46;100.00
10060;BME280;5069;49.306;8.636;2023-11-19T05:28:59;100381.25;;;11.52;100.00
10060;BME280;5069;49.306;8.636;2023-11-19T05:32:01;100373.44;;;11.49;100.00
10060;BME280;5069;49.306;8.636;2023-11-19T05:35:03;100375.28;;;11.47;100.00
10060;BME280;5069;49.306;8.636;2023-11-19T05:38:04;100377.50;;;11.57;100.00
10060;BME280;5069;49.306;8.636;2023-11-19T05:41:07;100359.78;;;11.61;100.00
10060;BME280;5069;49.306;8.636;2023-11-19T05:44:08;100367.47;;;11.67;100.00
10060;BME280;5069;49.306;8.636;2023-11-19T05:47:10;100367.47;;;11.67;100.00
10060;BME280;5069;49.306;8.636;2023-11-19T05:50:12;100370.28;;;11.63;100.00
10060;BME280;5069;49.306;8.636;2023-11-19T05:53:13;100372.63;;;11.70;100.00
10060;BME280;5069;49.306;8.636;2023-11-19T05:56:16;100367.28;;;11.73;100.00
10060;BME280;5069;49.306;8.636;2023-11-19T05:59:22;100357.50;;;11.75;100.00
10060;BME280;5069;49.306;8.636;2023-11-19T06:02:24;100353.03;;;11.77;100.00
10060;BME280;5069;49.306;8.636;2023-11-19T06:05:25;100345.16;;;11.76;100.00
10060;BME280;5069;49.306;8.636;2023-11-19T06:08:27;100344.50;;;11.92;100.00
10060;BME280;5069;49.306;8.636;2023-11-19T06:11:28;100341.97;;;11.89;100.00
10060;BME280;5069;49.306;8.636;2023-11-19T06:14:30;100333.13;;;11.90;100.00
10060;BME280;5069;49.306;8.636;2023-11-19T06:17:31;100337.91;;;12.02;100.00
10060;BME280;5069;49.306;8.636;2023-11-19T06:20:33;100344.91;;;12.04;100.00
10060;BME280;5069;49.306;8.636;2023-11-19T06:23:38;100352.91;;;12.02;100.00
10060;BME280;5069;49.306;8.636;2023-11-19T06:26:39;100359.00;;;12.04;100.00
10060;BME280;5069;49.306;8.636;2023-11-19T06:29:41;100359.59;;;12.11;100.00
10060;BME280;5069;49.306;8.636;2023-11-19T06:32:43;100364.84;;;12.12;100.00
10060;BME280;5069;49.306;8.636;2023-11-19T06:35:44;100360.28;;;12.16;100.00
10060;BME280;5069;49.306;8.636;2023-11-19T06:38:46;100365.47;;;12.19;100.00
10060;BME280;5069;49.306;8.636;2023-11-19T06:41:47;100367.03;;;12.23;100.00
10060;BME280;5069;49.306;8.636;2023-11-19T06:44:49;100356.59;;;12.20;100.00
10060;BME280;5069;49.306;8.636;2023-11-19T06:47:50;100361.63;;;12.26;100.00
10060;BME280;5069;49.306;8.636;2023-11-19T06:50:52;100361.75;;;12.23;100.00
10060;BME280;5069;49.306;8.636;2023-11-19T06:53:53;100369.25;;;12.33;100.00
10060;BME280;5069;49.306;8.636;2023-11-19T06:56:55;100367.47;;;12.34;100.00
10060;BME280;5069;49.306;8.636;2023-11-19T06:59:58;100379.81;;;12.33;100.00
10060;BME280;5069;49.306;8.636;2023-11-19T07:03:00;100375.50;;;12.31;100.00
10060;BME280;5069;49.306;8.636;2023-11-19T07:06:01;100380.53;;;12.37;100.00
10060;BME280;5069;49.306;8.636;2023-11-19T07:09:05;100386.69;;;12.37;100.00
10060;BME280;5069;49.306;8.636;2023-11-19T07:12:12;100388.38;;;12.40;100.00
10060;BME280;5069;49.306;8.636;2023-11-19T07:15:14;100396.16;;;12.43;100.00
10060;BME280;5069;49.306;8.636;2023-11-19T07:18:17;100390.88;;;12.43;100.00
10060;BME280;5069;49.306;8.636;2023-11-19T07:21:19;100389.56;;;12.53;100.00
10060;BME280;5069;49.306;8.636;2023-11-19T07:24:21;100396.50;;;12.56;100.00
10060;BME280;5069;49.306;8.636;2023-11-19T07:27:22;100393.66;;;12.60;100.00
10060;BME280;5069;49.306;8.636;2023-11-19T07:30:25;100400.22;;;12.52;100.00
10060;BME280;5069;49.306;8.636;2023-11-19T07:33:27;100409.69;;;12.57;100.00
10060;BME280;5069;49.306;8.636;2023-11-19T07:36:29;100406.13;;;12.58;100.00
10060;BME280;5069;49.306;8.636;2023-11-19T07:39:30;100420.38;;;12.54;100.00
10060;BME280;5069;49.306;8.636;2023-11-19T07:42:32;100423.09;;;12.53;100.00
10060;BME280;5069;49.306;8.636;2023-11-19T07:45:33;100428.28;;;12.54;100.00
10060;BME280;5069;49.306;8.636;2023-11-19T07:48:35;100436.97;;;12.58;100.00
10060;BME280;5069;49.306;8.636;2023-11-19T07:51:37;100431.31;;;12.45;100.00
10060;BME280;5069;49.306;8.636;2023-11-19T07:54:39;100424.56;;;12.38;100.00
10060;BME280;5069;49.306;8.636;2023-11-19T07:57:40;100423.75;;;12.36;100.00
10060;BME280;5069;49.306;8.636;2023-11-19T08:00:42;100427.00;;;12.42;100.00
10060;BME280;5069;49.306;8.636;2023-11-19T08:03:43;100427.16;;;12.39;100.00
10060;BME280;5069;49.306;8.636;2023-11-19T08:06:59;100426.25;;;12.40;100.00
10060;BME280;5069;49.306;8.636;2023-11-19T08:10:01;100429.50;;;12.47;100.00
10060;BME280;5069;49.306;8.636;2023-11-19T08:13:03;100429.59;;;12.44;100.00
10060;BME280;5069;49.306;8.636;2023-11-19T08:16:04;100425.78;;;12.51;100.00
10060;BME280;5069;49.306;8.636;2023-11-19T08:19:07;100435.56;;;12.49;100.00
10060;BME280;5069;49.306;8.636;2023-11-19T08:22:10;100433.59;;;12.54;100.00
10060;BME280;5069;49.306;8.636;2023-11-19T08:25:11;100454.25;;;12.66;100.00
10060;BME280;5069;49.306;8.636;2023-11-19T08:28:12;100449.56;;;12.73;100.00
10060;BME280;5069;49.306;8.636;2023-11-19T08:31:14;100446.31;;;12.66;100.00
10060;BME280;5069;49.306;8.636;2023-11-19T08:34:16;100443.41;;;12.72;100.00
10060;BME280;5069;49.306;8.636;2023-11-19T08:37:17;100438.41;;;12.87;100.00
10060;BME280;5069;49.306;8.636;2023-11-19T08:40:27;100434.25;;;13.01;100.00
10060;BME280;5069;49.306;8.636;2023-11-19T08:43:29;100431.72;;;13.20;100.00
10060;BME280;5069;49.306;8.636;2023-11-19T08:46:33;100433.13;;;13.27;100.00
10060;BME280;5069;49.306;8.636;2023-11-19T08:49:35;100435.59;;;13.32;100.00
10060;BME280;5069;49.306;8.636;2023-11-19T08:52:37;100429.50;;;13.30;100.00
10060;BME280;5069;49.306;8.636;2023-11-19T08:55:38;100429.72;;;13.25;100.00
10060;BME280;5069;49.306;8.636;2023-11-19T08:58:40;100438.44;;;13.27;100.00
10060;BME280;5069;49.306;8.636;2023-11-19T09:01:41;100425.75;;;13.15;100.00
10060;BME280;5069;49.306;8.636;2023-11-19T09:04:43;100414.38;;;13.13;100.00
10060;BME280;5069;49.306;8.636;2023-11-19T09:07:44;100425.56;;;13.19;100.00
10060;BME280;5069;49.306;8.636;2023-11-19T09:10:46;100440.03;;;13.31;100.00
10060;BME280;5069;49.306;8.636;2023-11-19T09:13:47;100434.19;;;13.43;100.00
10060;BME280;5069;49.306;8.636;2023-11-19T09:16:49;100433.56;;;13.57;100.00
10060;BME280;5069;49.306;8.636;2023-11-19T09:19:51;100443.50;;;13.52;100.00
10060;BME280;5069;49.306;8.636;2023-11-19T09:22:52;100436.50;;;13.51;100.00
10060;BME280;5069;49.306;8.636;2023-11-19T09:25:54;100440.00;;;13.51;100.00
10060;BME280;5069;49.306;8.636;2023-11-19T09:28:56;100436.31;;;13.55;100.00
10060;BME280;5069;49.306;8.636;2023-11-19T09:31:58;100430.91;;;13.57;100.00
10060;BME280;5069;49.306;8.636;2023-11-19T09:34:59;100433.56;;;13.57;100.00
10060;BME280;5069;49.306;8.636;2023-11-19T09:38:02;100435.22;;;13.59;100.00
10060;BME280;5069;49.306;8.636;2023-11-19T09:41:05;100436.97;;;13.60;100.00
10060;BME280;5069;49.306;8.636;2023-11-19T09:44:10;100422.34;;;13.71;100.00
10060;BME280;5069;49.306;8.636;2023-11-19T09:47:14;100419.16;;;13.83;100.00
10060;BME280;5069;49.306;8.636;2023-11-19T09:50:17;100416.56;;;14.00;100.00
10060;BME280;5069;49.306;8.636;2023-11-19T09:53:20;100423.63;;;14.18;100.00
10060;BME280;5069;49.306;8.636;2023-11-19T09:56:22;100410.88;;;14.26;100.00
10060;BME280;5069;49.306;8.636;2023-11-19T09:59:25;100415.06;;;14.30;100.00
10060;BME280;5069;49.306;8.636;2023-11-19T10:02:30;100412.34;;;14.32;100.00
10060;BME280;5069;49.306;8.636;2023-11-19T10:05:33;100415.63;;;14.38;100.00
10060;BME280;5069;49.306;8.636;2023-11-19T10:08:37;100419.59;;;14.47;100.00
10060;BME280;5069;49.306;8.636;2023-11-19T10:11:41;100416.72;;;14.52;100.00
10060;BME280;5069;49.306;8.636;2023-11-19T10:14:44;100416.25;;;14.43;100.00
10060;BME280;5069;49.306;8.636;2023-11-19T10:17:46;100412.81;;;14.59;100.00
10060;BME280;5069;49.306;8.636;2023-11-19T10:20:47;100412.22;;;14.71;100.00
10060;BME280;5069;49.306;8.636;2023-11-19T10:23:53;100401.78;;;14.85;100.00
10060;BME280;5069;49.306;8.636;2023-11-19T10:26:56;100410.50;;;14.70;100.00
10060;BME280;5069;49.306;8.636;2023-11-19T10:30:01;100397.31;;;14.68;100.00
10060;BME280;5069;49.306;8.636;2023-11-19T10:33:11;100398.94;;;14.88;100.00
10060;BME280;5069;49.306;8.636;2023-11-19T10:36:18;100395.44;;;15.05;100.00
10060;BME280;5069;49.306;8.636;2023-11-19T10:39:51;100378.16;;;15.13;100.00
10060;BME280;5069;49.306;8.636;2023-11-19T10:43:02;100380.94;;;15.27;100.00
10060;BME280;5069;49.306;8.636;2023-11-19T10:46:11;100369.13;;;15.33;100.00
10060;BME280;5069;49.306;8.636;2023-11-19T10:49:13;100373.13;;;15.42;100.00
10060;BME280;5069;49.306;8.636;2023-11-19T10:52:18;100368.03;;;15.54;100.00
10060;BME280;5069;49.306;8.636;2023-11-19T10:55:26;100363.22;;;15.61;100.00
10060;BME280;5069;49.306;8.636;2023-11-19T10:58:32;100370.09;;;15.81;100.00
10060;BME280;5069;49.306;8.636;2023-11-19T11:01:43;100359.47;;;15.81;100.00
10060;BME280;5069;49.306;8.636;2023-11-19T11:04:47;100355.63;;;15.86;100.00
10060;BME280;5069;49.306;8.636;2023-11-19T11:07:50;100348.91;;;15.79;100.00
10060;BME280;5069;49.306;8.636;2023-11-19T11:10:55;100353.13;;;15.67;100.00
10060;BME280;5069;49.306;8.636;2023-11-19T11:13:59;100347.53;;;15.56;100.00
10060;BME280;5069;49.306;8.636;2023-11-19T11:17:03;100352.25;;;15.34;100.00
10060;BME280;5069;49.306;8.636;2023-11-19T11:20:09;100353.84;;;15.21;100.00
10060;BME280;5069;49.306;8.636;2023-11-19T11:23:39;100353.53;;;15.27;100.00
10060;BME280;5069;49.306;8.636;2023-11-19T11:27:11;100357.22;;;15.24;100.00
10060;BME280;5069;49.306;8.636;2023-11-19T11:30:35;100346.22;;;15.48;100.00
10060;BME280;5069;49.306;8.636;2023-11-19T11:34:03;100339.75;;;15.69;100.00
10060;BME280;5069;49.306;8.636;2023-11-19T11:37:18;100341.53;;;15.84;100.00
10060;BME280;5069;49.306;8.636;2023-11-19T11:40:21;100318.97;;;16.07;100.00
10060;BME280;5069;49.306;8.636;2023-11-19T11:43:44;100308.69;;;16.17;100.00
10060;BME280;5069;49.306;8.636;2023-11-19T11:46:56;100290.38;;;16.26;100.00
10060;BME280;5069;49.306;8.636;2023-11-19T11:50:06;100293.22;;;16.23;100.00
10060;BME280;5069;49.306;8.636;2023-11-19T11:53:15;100280.19;;;16.19;100.00
10060;BME280;5069;49.306;8.636;2023-11-19T11:56:17;100279.06;;;16.23;100.00
10060;BME280;5069;49.306;8.636;2023-11-19T11:59:18;100277.66;;;16.31;100.00
10060;BME280;5069;49.306;8.636;2023-11-19T12:02:22;100278.88;;;16.56;100.00
10060;BME280;5069;49.306;8.636;2023-11-19T12:05:23;100283.34;;;16.55;100.00
10060;BME280;5069;49.306;8.636;2023-11-19T12:08:28;100270.81;;;16.27;100.00
10060;BME280;5069;49.306;8.636;2023-11-19T12:11:30;100267.22;;;16.12;100.00
10060;BME280;5069;49.306;8.636;2023-11-19T12:15:12;100277.75;;;15.84;100.00
10060;BME280;5069;49.306;8.636;2023-11-19T12:18:18;100280.09;;;15.75;100.00
10060;BME280;5069;49.306;8.636;2023-11-19T12:21:30;100288.84;;;15.77;100.00
10060;BME280;5069;49.306;8.636;2023-11-19T12:24:33;100275.16;;;15.98;100.00
10060;BME280;5069;49.306;8.636;2023-11-19T12:27:35;100272.47;;;16.14;100.00
10060;BME280;5069;49.306;8.636;2023-11-19T12:30:37;100275.63;;;16.21;100.00
10060;BME280;5069;49.306;8.636;2023-11-19T12:33:38;100273.53;;;16.11;100.00
10060;BME280;5069;49.306;8.636;2023-11-19T12:36:40;100268.72;;;16.02;100.00
10060;BME280;5069;49.306;8.636;2023-11-19T12:39:42;100261.81;;;15.84;100.00
10060;BME280;5069;49.306;8.636;2023-11-19T12:42:45;100263.13;;;15.77;100.00
10060;BME280;5069;49.306;8.636;2023-11-19T12:45:47;100260.09;;;15.67;100.00
10060;BME280;5069;49.306;8.636;2023-11-19T12:48:50;100257.63;;;15.64;100.00
10060;BME280;5069;49.306;8.636;2023-11-19T12:51:51;100260.03;;;15.53;100.00
10060;BME280;5069;49.306;8.636;2023-11-19T12:54:53;100251.13;;;15.54;100.00
10060;BME280;5069;49.306;8.636;2023-11-19T12:57:55;100246.31;;;15.61;100.00
10060;BME280;5069;49.306;8.636;2023-11-19T13:01:04;100251.47;;;15.64;100.00
10060;BME280;5069;49.306;8.636;2023-11-19T13:08:58;100217.25;;;16.03;100.00
10060;BME280;5069;49.306;8.636;2023-11-19T13:12:41;100222.66;;;16.02;100.00
10060;BME280;5069;49.306;8.636;2023-11-19T13:15:43;100218.72;;;16.09;100.00
10060;BME280;5069;49.306;8.636;2023-11-19T13:18:47;100215.50;;;16.18;100.00
10060;BME280;5069;49.306;8.636;2023-11-19T13:21:49;100224.16;;;16.22;100.00
10060;BME280;5069;49.306;8.636;2023-11-19T13:24:50;100213.75;;;16.47;100.00
10060;BME280;5069;49.306;8.636;2023-11-19T13:27:52;100211.72;;;16.66;100.00
10060;BME280;5069;49.306;8.636;2023-11-19T13:30:53;100200.09;;;16.81;100.00
10060;BME280;5069;49.306;8.636;2023-11-19T13:33:55;100199.44;;;16.92;100.00
10060;BME280;5069;49.306;8.636;2023-11-19T13:36:58;100207.06;;;16.84;100.00
10060;BME280;5069;49.306;8.636;2023-11-19T13:40:09;100197.25;;;16.99;100.00
10060;BME280;5069;49.306;8.636;2023-11-19T13:43:14;100200.56;;;17.16;100.00
10060;BME280;5069;49.306;8.636;2023-11-19T13:46:16;100187.22;;;17.30;100.00
10060;BME280;5069;49.306;8.636;2023-11-19T13:49:17;100189.75;;;17.32;98.98
10060;BME280;5069;49.306;8.636;2023-11-19T13:52:23;100185.19;;;17.07;99.54
10060;BME280;5069;49.306;8.636;2023-11-19T13:55:24;100187.75;;;16.94;100.00
10060;BME280;5069;49.306;8.636;2023-11-19T13:58:26;100179.50;;;16.85;100.00
10060;BME280;5069;49.306;8.636;2023-11-19T14:01:28;100183.66;;;16.75;100.00
10060;BME280;5069;49.306;8.636;2023-11-19T14:09:35;100170.44;;;16.45;92.26
10060;BME280;5069;49.306;8.636;2023-11-19T14:12:37;100170.06;;;16.51;87.35
10060;BME280;5069;49.306;8.636;2023-11-19T14:15:39;100160.34;;;16.36;90.31
10060;BME280;5069;49.306;8.636;2023-11-19T14:18:41;100160.03;;;16.40;89.86
10060;BME280;5069;49.306;8.636;2023-11-19T14:21:42;100168.97;;;16.25;94.45
10060;BME280;5069;49.306;8.636;2023-11-19T14:24:46;100173.31;;;16.12;97.70
10060;BME280;5069;49.306;8.636;2023-11-19T14:27:47;100173.31;;;16.12;100.00
10060;BME280;5069;49.306;8.636;2023-11-19T14:30:49;100181.75;;;16.04;100.00
10060;BME280;5069;49.306;8.636;2023-11-19T14:33:55;100187.13;;;15.89;100.00
10060;BME280;5069;49.306;8.636;2023-11-19T14:36:58;100184.56;;;15.87;100.00
10060;BME280;5069;49.306;8.636;2023-11-19T14:40:00;100185.22;;;15.91;100.00
10060;BME280;5069;49.306;8.636;2023-11-19T14:43:03;100194.88;;;15.78;100.00
10060;BME280;5069;49.306;8.636;2023-11-19T14:46:04;100196.25;;;15.69;100.00
10060;BME280;5069;49.306;8.636;2023-11-19T14:49:08;100190.50;;;15.61;100.00
10060;BME280;5069;49.306;8.636;2023-11-19T14:52:10;100198.19;;;15.50;100.00
10060;BME280;5069;49.306;8.636;2023-11-19T14:55:15;100187.34;;;15.39;100.00
10060;BME280;5069;49.306;8.636;2023-11-19T14:58:16;100199.84;;;15.37;100.00
10060;BME280;5069;49.306;8.636;2023-11-19T15:01:18;100196.94;;;15.25;100.00
10060;BME280;5069;49.306;8.636;2023-11-19T15:04:20;100206.88;;;15.22;100.00
10060;BME280;5069;49.306;8.636;2023-11-19T15:07:21;100200.53;;;15.24;100.00
10060;BME280;5069;49.306;8.636;2023-11-19T15:10:23;100208.16;;;15.15;100.00
10060;BME280;5069;49.306;8.636;2023-11-19T15:13:26;100205.41;;;15.16;100.00
10060;BME280;5069;49.306;8.636;2023-11-19T15:16:28;100203.28;;;15.07;100.00
10060;BME280;5069;49.306;8.636;2023-11-19T15:19:34;100196.25;;;15.06;100.00
10060;BME280;5069;49.306;8.636;2023-11-19T15:22:36;100200.63;;;15.07;100.00
10060;BME280;5069;49.306;8.636;2023-11-19T15:25:37;100198.81;;;15.23;100.00
10060;BME280;5069;49.306;8.636;2023-11-19T15:28:39;100202.59;;;15.19;100.00
10060;BME280;5069;49.306;8.636;2023-11-19T15:31:40;100196.25;;;15.22;99.15
10060;BME280;5069;49.306;8.636;2023-11-19T15:34:42;100196.75;;;15.28;96.43
10060;BME280;5069;49.306;8.636;2023-11-19T15:37:44;100207.03;;;15.35;95.46
10060;BME280;5069;49.306;8.636;2023-11-19T15:40:46;100196.78;;;15.13;99.79
10060;BME280;5069;49.306;8.636;2023-11-19T15:43:47;100197.97;;;15.07;99.98
10060;BME280;5069;49.306;8.636;2023-11-19T15:46:49;100196.91;;;14.94;100.00
10060;BME280;5069;49.306;8.636;2023-11-19T15:49:50;100207.50;;;14.78;100.00
10060;BME280;5069;49.306;8.636;2023-11-19T15:52:52;100214.94;;;14.72;100.00
10060;BME280;5069;49.306;8.636;2023-11-19T15:55:53;100209.56;;;14.73;100.00
10060;BME280;5069;49.306;8.636;2023-11-19T15:58:55;100220.81;;;14.61;100.00
10060;BME280;5069;49.306;8.636;2023-11-19T16:01:57;100220.78;;;14.45;100.00
10060;BME280;5069;49.306;8.636;2023-11-19T16:04:58;100219.78;;;14.64;100.00
10060;BME280;5069;49.306;8.636;2023-11-19T16:08:00;100210.13;;;14.63;100.00
10060;BME280;5069;49.306;8.636;2023-11-19T16:11:02;100208.81;;;14.54;100.00